sensor_id;sensor_type;location;lat;lon;timestamp;P1;durP1;ratioP1;P2;durP2;ratioP2
74459;SDS011;62902;48.854;9.292;2022-08-19T00:01:23;14.63;;;10.43;;
74459;SDS011;62902;48.854;9.292;2022-08-19T00:03:56;15.23;;;10.80;;
74459;SDS011;62902;48.854;9.292;2022-08-19T00:06:23;13.88;;;10.20;;
74459;SDS011;62902;48.854;9.292;2022-08-19T00:08:50;15.45;;;10.25;;
74459;SDS011;62902;48.854;9.292;2022-08-19T00:11:17;15.80;;;10.35;;
74459;SDS011;62902;48.854;9.292;2022-08-19T00:13:51;15.63;;;10.30;;
74459;SDS011;62902;48.854;9.292;2022-08-19T00:16:18;14.35;;;10.55;;
74459;SDS011;62902;48.854;9.292;2022-08-19T00:18:52;14.13;;;9.98;;
74459;SDS011;62902;48.854;9.292;2022-08-19T00:23:46;15.80;;;10.70;;
74459;SDS011;62902;48.854;9.292;2022-08-19T00:26:12;15.45;;;10.88;;
74459;SDS011;62902;48.854;9.292;2022-08-19T00:28:39;16.50;;;10.40;;
74459;SDS011;62902;48.854;9.292;2022-08-19T00:31:06;16.60;;;11.18;;
74459;SDS011;62902;48.854;9.292;2022-08-19T00:36:01;16.17;;;10.35;;
74459;SDS011;62902;48.854;9.292;2022-08-19T00:38:31;16.33;;;11.80;;
74459;SDS011;62902;48.854;9.292;2022-08-19T00:41:03;16.48;;;11.02;;
74459;SDS011;62902;48.854;9.292;2022-08-19T00:43:32;17.23;;;11.77;;
74459;SDS011;62902;48.854;9.292;2022-08-19T00:45:59;17.10;;;11.48;;
74459;SDS011;62902;48.854;9.292;2022-08-19T00:48:25;16.85;;;11.65;;
74459;SDS011;62902;48.854;9.292;2022-08-19T00:50:52;16.02;;;11.55;;
74459;SDS011;62902;48.854;9.292;2022-08-19T00:53:22;16.05;;;10.57;;
74459;SDS011;62902;48.854;9.292;2022-08-19T00:55:51;18.00;;;12.18;;
74459;SDS011;62902;48.854;9.292;2022-08-19T00:58:20;17.50;;;11.95;;
74459;SDS011;62902;48.854;9.292;2022-08-19T01:00:48;16.15;;;11.70;;
74459;SDS011;62902;48.854;9.292;2022-08-19T01:03:16;17.40;;;11.48;;
74459;SDS011;62902;48.854;9.292;2022-08-19T01:05:45;19.58;;;11.75;;
74459;SDS011;62902;48.854;9.292;2022-08-19T01:08:13;16.90;;;11.25;;
74459;SDS011;62902;48.854;9.292;2022-08-19T01:10:48;15.35;;;11.25;;
74459;SDS011;62902;48.854;9.292;2022-08-19T01:13:21;17.02;;;11.05;;
74459;SDS011;62902;48.854;9.292;2022-08-19T01:16:15;18.95;;;11.85;;
74459;SDS011;62902;48.854;9.292;2022-08-19T01:18:43;17.65;;;11.57;;
74459;SDS011;62902;48.854;9.292;2022-08-19T01:21:18;17.45;;;11.35;;
74459;SDS011;62902;48.854;9.292;2022-08-19T01:23:55;14.85;;;10.60;;
74459;SDS011;62902;48.854;9.292;2022-08-19T01:26:22;15.95;;;11.07;;
74459;SDS011;62902;48.854;9.292;2022-08-19T01:28:52;19.90;;;12.27;;
74459;SDS011;62902;48.854;9.292;2022-08-19T01:31:26;16.63;;;11.38;;
74459;SDS011;62902;48.854;9.292;2022-08-19T01:33:58;16.55;;;11.45;;
74459;SDS011;62902;48.854;9.292;2022-08-19T01:36:40;18.45;;;12.63;;
74459;SDS011;62902;48.854;9.292;2022-08-19T01:39:11;17.38;;;11.75;;
74459;SDS011;62902;48.854;9.292;2022-08-19T01:41:39;17.05;;;11.52;;
74459;SDS011;62902;48.854;9.292;2022-08-19T01:44:06;17.80;;;11.75;;
74459;SDS011;62902;48.854;9.292;2022-08-19T01:46:44;17.73;;;11.68;;
74459;SDS011;62902;48.854;9.292;2022-08-19T01:49:14;16.67;;;10.65;;
74459;SDS011;62902;48.854;9.292;2022-08-19T01:51:41;15.82;;;10.93;;
74459;SDS011;62902;48.854;9.292;2022-08-19T01:54:09;18.85;;;12.23;;
74459;SDS011;62902;48.854;9.292;2022-08-19T01:56:36;16.58;;;11.38;;
74459;SDS011;62902;48.854;9.292;2022-08-19T01:59:10;21.75;;;12.50;;
74459;SDS011;62902;48.854;9.292;2022-08-19T02:01:39;18.88;;;11.52;;
74459;SDS011;62902;48.854;9.292;2022-08-19T02:04:06;17.52;;;11.48;;
74459;SDS011;62902;48.854;9.292;2022-08-19T02:06:32;18.05;;;11.45;;
74459;SDS011;62902;48.854;9.292;2022-08-19T02:08:59;17.92;;;11.90;;
74459;SDS011;62902;48.854;9.292;2022-08-19T02:11:27;21.98;;;12.77;;
74459;SDS011;62902;48.854;9.292;2022-08-19T02:13:58;18.10;;;11.68;;
74459;SDS011;62902;48.854;9.292;2022-08-19T02:16:25;19.38;;;12.88;;
74459;SDS011;62902;48.854;9.292;2022-08-19T02:18:52;18.80;;;11.75;;
74459;SDS011;62902;48.854;9.292;2022-08-19T02:21:19;18.67;;;12.93;;
74459;SDS011;62902;48.854;9.292;2022-08-19T02:23:47;19.60;;;12.15;;
74459;SDS011;62902;48.854;9.292;2022-08-19T02:26:14;19.58;;;13.00;;
74459;SDS011;62902;48.854;9.292;2022-08-19T02:28:41;20.75;;;12.63;;
74459;SDS011;62902;48.854;9.292;2022-08-19T02:31:12;20.98;;;13.18;;
74459;SDS011;62902;48.854;9.292;2022-08-19T02:33:44;19.27;;;12.63;;
74459;SDS011;62902;48.854;9.292;2022-08-19T02:36:11;24.15;;;13.32;;
74459;SDS011;62902;48.854;9.292;2022-08-19T02:38:41;24.40;;;14.50;;
74459;SDS011;62902;48.854;9.292;2022-08-19T02:41:22;20.83;;;13.07;;
74459;SDS011;62902;48.854;9.292;2022-08-19T02:43:53;24.13;;;13.57;;
74459;SDS011;62902;48.854;9.292;2022-08-19T02:46:40;21.35;;;13.75;;
74459;SDS011;62902;48.854;9.292;2022-08-19T02:49:07;22.15;;;13.93;;
74459;SDS011;62902;48.854;9.292;2022-08-19T02:51:38;21.88;;;13.73;;
74459;SDS011;62902;48.854;9.292;2022-08-19T02:54:06;22.90;;;14.65;;
74459;SDS011;62902;48.854;9.292;2022-08-19T02:56:34;23.38;;;13.50;;
74459;SDS011;62902;48.854;9.292;2022-08-19T02:59:02;25.10;;;13.95;;
74459;SDS011;62902;48.854;9.292;2022-08-19T03:01:33;22.08;;;14.07;;
74459;SDS011;62902;48.854;9.292;2022-08-19T03:06:28;24.90;;;14.10;;
74459;SDS011;62902;48.854;9.292;2022-08-19T03:08:55;26.38;;;14.60;;
74459;SDS011;62902;48.854;9.292;2022-08-19T03:11:24;21.55;;;13.98;;
74459;SDS011;62902;48.854;9.292;2022-08-19T03:13:53;24.40;;;14.60;;
74459;SDS011;62902;48.854;9.292;2022-08-19T03:18:48;25.50;;;14.60;;
74459;SDS011;62902;48.854;9.292;2022-08-19T03:21:20;22.60;;;14.25;;
74459;SDS011;62902;48.854;9.292;2022-08-19T03:23:48;24.80;;;14.07;;
74459;SDS011;62902;48.854;9.292;2022-08-19T03:26:15;22.50;;;13.88;;
74459;SDS011;62902;48.854;9.292;2022-08-19T03:31:24;26.33;;;15.32;;
74459;SDS011;62902;48.854;9.292;2022-08-19T03:34:17;22.35;;;14.60;;
74459;SDS011;62902;48.854;9.292;2022-08-19T03:36:58;24.08;;;14.15;;
74459;SDS011;62902;48.854;9.292;2022-08-19T03:39:26;24.00;;;14.20;;
74459;SDS011;62902;48.854;9.292;2022-08-19T03:41:54;23.45;;;14.90;;
74459;SDS011;62902;48.854;9.292;2022-08-19T03:44:43;24.27;;;15.40;;
74459;SDS011;62902;48.854;9.292;2022-08-19T03:47:11;25.90;;;16.10;;
74459;SDS011;62902;48.854;9.292;2022-08-19T03:49:42;23.45;;;16.00;;
74459;SDS011;62902;48.854;9.292;2022-08-19T03:52:09;25.15;;;15.95;;
74459;SDS011;62902;48.854;9.292;2022-08-19T03:54:36;26.27;;;15.60;;
74459;SDS011;62902;48.854;9.292;2022-08-19T03:57:04;23.95;;;14.63;;
74459;SDS011;62902;48.854;9.292;2022-08-19T03:59:32;26.42;;;16.65;;
74459;SDS011;62902;48.854;9.292;2022-08-19T04:02:01;23.77;;;15.85;;
74459;SDS011;62902;48.854;9.292;2022-08-19T04:04:29;25.05;;;15.30;;
74459;SDS011;62902;48.854;9.292;2022-08-19T04:06:57;24.77;;;15.38;;
74459;SDS011;62902;48.854;9.292;2022-08-19T04:09:24;25.15;;;15.15;;
74459;SDS011;62902;48.854;9.292;2022-08-19T04:11:52;24.10;;;14.77;;
74459;SDS011;62902;48.854;9.292;2022-08-19T04:14:21;27.10;;;17.15;;
74459;SDS011;62902;48.854;9.292;2022-08-19T04:16:51;22.35;;;15.02;;
74459;SDS011;62902;48.854;9.292;2022-08-19T04:21:46;27.35;;;15.98;;
74459;SDS011;62902;48.854;9.292;2022-08-19T04:24:14;23.00;;;14.95;;
74459;SDS011;62902;48.854;9.292;2022-08-19T04:26:40;27.27;;;15.55;;
74459;SDS011;62902;48.854;9.292;2022-08-19T04:29:09;24.55;;;15.38;;
74459;SDS011;62902;48.854;9.292;2022-08-19T04:31:51;26.63;;;17.27;;
74459;SDS011;62902;48.854;9.292;2022-08-19T04:34:20;29.52;;;16.52;;
74459;SDS011;62902;48.854;9.292;2022-08-19T04:36:48;30.20;;;16.90;;
74459;SDS011;62902;48.854;9.292;2022-08-19T04:39:18;25.85;;;16.85;;
74459;SDS011;62902;48.854;9.292;2022-08-19T04:41:47;29.05;;;17.40;;
74459;SDS011;62902;48.854;9.292;2022-08-19T04:44:32;28.05;;;18.17;;
74459;SDS011;62902;48.854;9.292;2022-08-19T04:47:00;27.42;;;16.42;;
74459;SDS011;62902;48.854;9.292;2022-08-19T04:49:36;35.08;;;17.20;;
74459;SDS011;62902;48.854;9.292;2022-08-19T04:52:02;29.60;;;18.10;;
74459;SDS011;62902;48.854;9.292;2022-08-19T04:54:29;31.85;;;17.60;;
74459;SDS011;62902;48.854;9.292;2022-08-19T04:57:04;31.00;;;19.02;;
74459;SDS011;62902;48.854;9.292;2022-08-19T04:59:33;29.75;;;18.42;;
74459;SDS011;62902;48.854;9.292;2022-08-19T05:02:00;31.42;;;18.38;;
74459;SDS011;62902;48.854;9.292;2022-08-19T05:04:27;31.63;;;18.45;;
74459;SDS011;62902;48.854;9.292;2022-08-19T05:06:57;27.23;;;18.27;;
74459;SDS011;62902;48.854;9.292;2022-08-19T05:09:26;27.73;;;18.23;;
74459;SDS011;62902;48.854;9.292;2022-08-19T05:12:13;27.77;;;17.52;;
74459;SDS011;62902;48.854;9.292;2022-08-19T05:14:40;30.35;;;18.08;;
74459;SDS011;62902;48.854;9.292;2022-08-19T05:17:07;26.52;;;17.27;;
74459;SDS011;62902;48.854;9.292;2022-08-19T05:19:53;31.58;;;17.73;;
74459;SDS011;62902;48.854;9.292;2022-08-19T05:22:39;28.63;;;19.23;;
74459;SDS011;62902;48.854;9.292;2022-08-19T05:27:39;27.23;;;17.30;;
74459;SDS011;62902;48.854;9.292;2022-08-19T05:30:06;28.60;;;16.88;;
74459;SDS011;62902;48.854;9.292;2022-08-19T05:32:34;28.13;;;18.08;;
74459;SDS011;62902;48.854;9.292;2022-08-19T05:35:01;27.27;;;17.90;;
74459;SDS011;62902;48.854;9.292;2022-08-19T05:37:28;29.30;;;17.67;;
74459;SDS011;62902;48.854;9.292;2022-08-19T05:39:55;26.10;;;16.52;;
74459;SDS011;62902;48.854;9.292;2022-08-19T05:42:21;27.98;;;18.40;;
74459;SDS011;62902;48.854;9.292;2022-08-19T05:44:50;25.25;;;16.80;;
74459;SDS011;62902;48.854;9.292;2022-08-19T05:47:17;27.27;;;16.30;;
74459;SDS011;62902;48.854;9.292;2022-08-19T05:49:46;27.02;;;17.42;;
74459;SDS011;62902;48.854;9.292;2022-08-19T05:52:13;28.60;;;17.35;;
74459;SDS011;62902;48.854;9.292;2022-08-19T05:54:44;28.23;;;18.30;;
74459;SDS011;62902;48.854;9.292;2022-08-19T05:57:17;24.08;;;16.77;;
74459;SDS011;62902;48.854;9.292;2022-08-19T05:59:45;25.35;;;17.33;;
74459;SDS011;62902;48.854;9.292;2022-08-19T06:02:18;27.00;;;17.75;;
74459;SDS011;62902;48.854;9.292;2022-08-19T06:04:45;26.95;;;18.13;;
74459;SDS011;62902;48.854;9.292;2022-08-19T06:07:11;25.45;;;16.98;;
74459;SDS011;62902;48.854;9.292;2022-08-19T06:09:38;27.15;;;17.25;;
74459;SDS011;62902;48.854;9.292;2022-08-19T06:12:06;27.45;;;18.23;;
74459;SDS011;62902;48.854;9.292;2022-08-19T06:14:33;27.48;;;18.90;;
74459;SDS011;62902;48.854;9.292;2022-08-19T06:17:07;28.90;;;18.50;;
74459;SDS011;62902;48.854;9.292;2022-08-19T06:19:33;27.45;;;17.67;;
74459;SDS011;62902;48.854;9.292;2022-08-19T06:22:06;28.10;;;18.77;;
74459;SDS011;62902;48.854;9.292;2022-08-19T06:24:33;30.63;;;18.38;;
74459;SDS011;62902;48.854;9.292;2022-08-19T06:31:57;28.50;;;18.05;;
74459;SDS011;62902;48.854;9.292;2022-08-19T06:34:26;27.55;;;18.10;;
74459;SDS011;62902;48.854;9.292;2022-08-19T06:36:54;34.28;;;17.92;;
74459;SDS011;62902;48.854;9.292;2022-08-19T06:39:23;26.30;;;18.23;;
74459;SDS011;62902;48.854;9.292;2022-08-19T06:41:52;30.92;;;18.90;;
74459;SDS011;62902;48.854;9.292;2022-08-19T06:44:29;28.67;;;19.10;;
74459;SDS011;62902;48.854;9.292;2022-08-19T06:49:49;32.53;;;19.85;;
74459;SDS011;62902;48.854;9.292;2022-08-19T06:52:16;33.15;;;19.35;;
74459;SDS011;62902;48.854;9.292;2022-08-19T06:54:43;29.70;;;19.60;;
74459;SDS011;62902;48.854;9.292;2022-08-19T06:57:22;29.88;;;20.13;;
74459;SDS011;62902;48.854;9.292;2022-08-19T06:59:50;29.20;;;20.15;;
74459;SDS011;62902;48.854;9.292;2022-08-19T07:02:16;27.75;;;18.52;;
74459;SDS011;62902;48.854;9.292;2022-08-19T07:04:48;28.95;;;19.40;;
74459;SDS011;62902;48.854;9.292;2022-08-19T07:07:19;29.48;;;19.10;;
74459;SDS011;62902;48.854;9.292;2022-08-19T07:09:47;28.23;;;18.60;;
74459;SDS011;62902;48.854;9.292;2022-08-19T07:12:25;28.05;;;18.35;;
74459;SDS011;62902;48.854;9.292;2022-08-19T07:15:01;28.20;;;18.83;;
74459;SDS011;62902;48.854;9.292;2022-08-19T07:17:28;28.80;;;18.20;;
74459;SDS011;62902;48.854;9.292;2022-08-19T07:19:56;29.25;;;18.83;;
74459;SDS011;62902;48.854;9.292;2022-08-19T07:22:30;34.10;;;19.05;;
74459;SDS011;62902;48.854;9.292;2022-08-19T07:24:57;28.65;;;18.52;;
74459;SDS011;62902;48.854;9.292;2022-08-19T07:27:24;26.23;;;17.50;;
74459;SDS011;62902;48.854;9.292;2022-08-19T07:29:52;26.80;;;18.08;;
74459;SDS011;62902;48.854;9.292;2022-08-19T07:32:23;26.05;;;17.60;;
74459;SDS011;62902;48.854;9.292;2022-08-19T07:34:52;27.05;;;18.17;;
74459;SDS011;62902;48.854;9.292;2022-08-19T07:37:19;25.73;;;16.33;;
74459;SDS011;62902;48.854;9.292;2022-08-19T07:39:46;28.17;;;17.27;;
74459;SDS011;62902;48.854;9.292;2022-08-19T07:42:13;27.35;;;17.05;;
74459;SDS011;62902;48.854;9.292;2022-08-19T07:44:40;25.02;;;17.00;;
74459;SDS011;62902;48.854;9.292;2022-08-19T07:47:15;23.90;;;16.65;;
74459;SDS011;62902;48.854;9.292;2022-08-19T07:50:05;25.63;;;17.05;;
74459;SDS011;62902;48.854;9.292;2022-08-19T07:52:33;24.20;;;16.50;;
74459;SDS011;62902;48.854;9.292;2022-08-19T07:55:03;26.05;;;16.23;;
74459;SDS011;62902;48.854;9.292;2022-08-19T07:57:30;24.10;;;16.05;;
74459;SDS011;62902;48.854;9.292;2022-08-19T07:59:57;26.08;;;15.45;;
74459;SDS011;62902;48.854;9.292;2022-08-19T08:02:24;24.35;;;15.52;;
74459;SDS011;62902;48.854;9.292;2022-08-19T08:04:50;26.80;;;16.08;;
74459;SDS011;62902;48.854;9.292;2022-08-19T08:07:36;24.33;;;15.50;;
74459;SDS011;62902;48.854;9.292;2022-08-19T08:10:21;26.10;;;15.95;;
74459;SDS011;62902;48.854;9.292;2022-08-19T08:12:49;25.20;;;15.13;;
74459;SDS011;62902;48.854;9.292;2022-08-19T08:15:36;24.27;;;14.60;;
74459;SDS011;62902;48.854;9.292;2022-08-19T08:18:10;24.10;;;15.05;;
74459;SDS011;62902;48.854;9.292;2022-08-19T08:20:37;21.52;;;14.68;;
74459;SDS011;62902;48.854;9.292;2022-08-19T08:23:04;27.95;;;15.00;;
74459;SDS011;62902;48.854;9.292;2022-08-19T08:25:51;23.27;;;14.02;;
74459;SDS011;62902;48.854;9.292;2022-08-19T08:28:19;24.45;;;15.15;;
74459;SDS011;62902;48.854;9.292;2022-08-19T08:30:46;26.05;;;15.10;;
74459;SDS011;62902;48.854;9.292;2022-08-19T08:33:19;22.77;;;14.10;;
74459;SDS011;62902;48.854;9.292;2022-08-19T08:36:00;20.52;;;14.35;;
74459;SDS011;62902;48.854;9.292;2022-08-19T08:38:29;26.17;;;14.77;;
74459;SDS011;62902;48.854;9.292;2022-08-19T08:41:17;20.95;;;14.27;;
74459;SDS011;62902;48.854;9.292;2022-08-19T08:43:49;19.92;;;14.45;;
74459;SDS011;62902;48.854;9.292;2022-08-19T08:46:23;26.08;;;15.55;;
74459;SDS011;62902;48.854;9.292;2022-08-19T08:51:38;26.60;;;15.27;;
74459;SDS011;62902;48.854;9.292;2022-08-19T08:54:14;25.65;;;17.02;;
74459;SDS011;62902;48.854;9.292;2022-08-19T08:56:44;28.88;;;16.70;;
74459;SDS011;62902;48.854;9.292;2022-08-19T08:59:14;27.83;;;17.23;;
74459;SDS011;62902;48.854;9.292;2022-08-19T09:01:45;26.00;;;17.08;;
74459;SDS011;62902;48.854;9.292;2022-08-19T09:04:12;28.98;;;17.77;;
74459;SDS011;62902;48.854;9.292;2022-08-19T09:09:32;28.38;;;18.92;;
74459;SDS011;62902;48.854;9.292;2022-08-19T09:14:44;28.88;;;18.65;;
74459;SDS011;62902;48.854;9.292;2022-08-19T09:17:18;29.42;;;19.30;;
74459;SDS011;62902;48.854;9.292;2022-08-19T09:19:58;34.53;;;20.02;;
74459;SDS011;62902;48.854;9.292;2022-08-19T09:22:38;30.60;;;18.58;;
74459;SDS011;62902;48.854;9.292;2022-08-19T09:25:07;35.85;;;20.13;;
74459;SDS011;62902;48.854;9.292;2022-08-19T09:27:35;30.58;;;19.98;;
74459;SDS011;62902;48.854;9.292;2022-08-19T09:30:17;29.45;;;19.75;;
74459;SDS011;62902;48.854;9.292;2022-08-19T09:32:49;34.83;;;20.90;;
74459;SDS011;62902;48.854;9.292;2022-08-19T09:35:19;32.83;;;19.77;;
74459;SDS011;62902;48.854;9.292;2022-08-19T09:37:49;32.25;;;19.70;;
74459;SDS011;62902;48.854;9.292;2022-08-19T09:40:23;36.15;;;21.58;;
74459;SDS011;62902;48.854;9.292;2022-08-19T09:42:50;38.50;;;23.63;;
74459;SDS011;62902;48.854;9.292;2022-08-19T09:47:47;36.85;;;22.05;;
74459;SDS011;62902;48.854;9.292;2022-08-19T09:50:20;39.33;;;22.48;;
74459;SDS011;62902;48.854;9.292;2022-08-19T09:52:48;38.65;;;23.77;;
74459;SDS011;62902;48.854;9.292;2022-08-19T09:55:23;45.05;;;24.50;;
74459;SDS011;62902;48.854;9.292;2022-08-19T09:57:57;39.97;;;23.75;;
74459;SDS011;62902;48.854;9.292;2022-08-19T10:00:25;42.63;;;23.40;;
74459;SDS011;62902;48.854;9.292;2022-08-19T10:02:52;42.53;;;25.75;;
74459;SDS011;62902;48.854;9.292;2022-08-19T10:05:19;42.60;;;24.42;;
74459;SDS011;62902;48.854;9.292;2022-08-19T10:08:08;49.63;;;25.27;;
74459;SDS011;62902;48.854;9.292;2022-08-19T10:10:39;44.58;;;24.13;;
74459;SDS011;62902;48.854;9.292;2022-08-19T10:13:12;39.10;;;22.98;;
74459;SDS011;62902;48.854;9.292;2022-08-19T10:15:45;39.67;;;24.30;;
74459;SDS011;62902;48.854;9.292;2022-08-19T10:18:15;47.92;;;24.77;;
74459;SDS011;62902;48.854;9.292;2022-08-19T10:20:45;42.35;;;24.17;;
74459;SDS011;62902;48.854;9.292;2022-08-19T10:23:18;39.22;;;24.25;;
74459;SDS011;62902;48.854;9.292;2022-08-19T10:25:46;42.75;;;24.40;;
74459;SDS011;62902;48.854;9.292;2022-08-19T10:30:40;36.58;;;22.63;;
74459;SDS011;62902;48.854;9.292;2022-08-19T10:33:07;41.30;;;23.35;;
74459;SDS011;62902;48.854;9.292;2022-08-19T10:35:36;34.80;;;22.00;;
74459;SDS011;62902;48.854;9.292;2022-08-19T10:38:22;38.97;;;22.63;;
74459;SDS011;62902;48.854;9.292;2022-08-19T10:40:58;42.55;;;22.80;;
74459;SDS011;62902;48.854;9.292;2022-08-19T10:43:33;38.00;;;23.25;;
74459;SDS011;62902;48.854;9.292;2022-08-19T10:46:04;35.47;;;22.05;;
74459;SDS011;62902;48.854;9.292;2022-08-19T10:48:39;35.78;;;22.48;;
74459;SDS011;62902;48.854;9.292;2022-08-19T10:51:07;38.92;;;22.00;;
74459;SDS011;62902;48.854;9.292;2022-08-19T10:53:53;33.85;;;20.83;;
74459;SDS011;62902;48.854;9.292;2022-08-19T10:56:20;35.30;;;23.10;;
74459;SDS011;62902;48.854;9.292;2022-08-19T10:59:05;33.83;;;21.73;;
74459;SDS011;62902;48.854;9.292;2022-08-19T11:01:32;32.42;;;21.35;;
74459;SDS011;62902;48.854;9.292;2022-08-19T11:04:01;32.58;;;20.35;;
74459;SDS011;62902;48.854;9.292;2022-08-19T11:06:30;30.58;;;19.75;;
74459;SDS011;62902;48.854;9.292;2022-08-19T11:08:57;28.50;;;18.75;;
74459;SDS011;62902;48.854;9.292;2022-08-19T11:11:26;26.55;;;18.92;;
74459;SDS011;62902;48.854;9.292;2022-08-19T11:13:53;27.33;;;18.30;;
74459;SDS011;62902;48.854;9.292;2022-08-19T11:16:20;30.40;;;18.98;;
74459;SDS011;62902;48.854;9.292;2022-08-19T11:18:50;30.25;;;18.75;;
74459;SDS011;62902;48.854;9.292;2022-08-19T11:21:24;31.52;;;17.95;;
74459;SDS011;62902;48.854;9.292;2022-08-19T11:23:52;26.58;;;17.20;;
74459;SDS011;62902;48.854;9.292;2022-08-19T11:26:20;24.45;;;15.98;;
74459;SDS011;62902;48.854;9.292;2022-08-19T11:28:48;23.60;;;15.55;;
74459;SDS011;62902;48.854;9.292;2022-08-19T11:31:19;24.48;;;15.73;;
74459;SDS011;62902;48.854;9.292;2022-08-19T11:33:49;21.65;;;15.88;;
74459;SDS011;62902;48.854;9.292;2022-08-19T11:36:20;17.67;;;12.98;;
74459;SDS011;62902;48.854;9.292;2022-08-19T11:38:48;20.52;;;15.23;;
74459;SDS011;62902;48.854;9.292;2022-08-19T11:41:16;22.50;;;14.82;;
74459;SDS011;62902;48.854;9.292;2022-08-19T11:43:44;29.45;;;16.10;;
74459;SDS011;62902;48.854;9.292;2022-08-19T11:46:11;23.92;;;14.43;;
74459;SDS011;62902;48.854;9.292;2022-08-19T11:48:39;21.48;;;14.90;;
74459;SDS011;62902;48.854;9.292;2022-08-19T11:51:07;22.98;;;15.20;;
74459;SDS011;62902;48.854;9.292;2022-08-19T11:53:39;19.90;;;14.85;;
74459;SDS011;62902;48.854;9.292;2022-08-19T11:56:07;21.23;;;14.20;;
74459;SDS011;62902;48.854;9.292;2022-08-19T11:58:35;19.20;;;13.25;;
74459;SDS011;62902;48.854;9.292;2022-08-19T12:03:31;17.00;;;12.27;;
74459;SDS011;62902;48.854;9.292;2022-08-19T12:05:58;19.60;;;13.02;;
74459;SDS011;62902;48.854;9.292;2022-08-19T12:08:25;19.60;;;10.82;;
74459;SDS011;62902;48.854;9.292;2022-08-19T12:10:51;18.08;;;10.93;;
74459;SDS011;62902;48.854;9.292;2022-08-19T12:13:18;14.98;;;11.68;;
74459;SDS011;62902;48.854;9.292;2022-08-19T12:15:46;13.45;;;9.23;;
74459;SDS011;62902;48.854;9.292;2022-08-19T12:18:13;17.25;;;11.45;;
74459;SDS011;62902;48.854;9.292;2022-08-19T12:20:41;18.48;;;11.98;;
74459;SDS011;62902;48.854;9.292;2022-08-19T12:23:09;16.52;;;10.98;;
74459;SDS011;62902;48.854;9.292;2022-08-19T12:25:36;14.77;;;10.50;;
74459;SDS011;62902;48.854;9.292;2022-08-19T12:28:04;16.17;;;11.07;;
74459;SDS011;62902;48.854;9.292;2022-08-19T12:30:30;14.18;;;10.57;;
74459;SDS011;62902;48.854;9.292;2022-08-19T12:32:57;18.98;;;11.40;;
74459;SDS011;62902;48.854;9.292;2022-08-19T12:35:23;15.73;;;9.98;;
74459;SDS011;62902;48.854;9.292;2022-08-19T12:37:50;16.15;;;10.30;;
74459;SDS011;62902;48.854;9.292;2022-08-19T12:40:22;14.50;;;10.13;;
74459;SDS011;62902;48.854;9.292;2022-08-19T12:42:51;16.85;;;11.30;;
74459;SDS011;62902;48.854;9.292;2022-08-19T12:45:18;12.15;;;9.60;;
74459;SDS011;62902;48.854;9.292;2022-08-19T12:47:46;20.80;;;12.20;;
74459;SDS011;62902;48.854;9.292;2022-08-19T12:50:14;31.58;;;20.63;;
74459;SDS011;62902;48.854;9.292;2022-08-19T12:52:42;34.47;;;23.08;;
74459;SDS011;62902;48.854;9.292;2022-08-19T12:55:09;32.53;;;21.25;;
74459;SDS011;62902;48.854;9.292;2022-08-19T12:57:36;33.80;;;22.15;;
74459;SDS011;62902;48.854;9.292;2022-08-19T13:00:08;34.30;;;22.92;;
74459;SDS011;62902;48.854;9.292;2022-08-19T13:02:38;34.53;;;23.63;;
74459;SDS011;62902;48.854;9.292;2022-08-19T13:05:08;43.03;;;26.90;;
74459;SDS011;62902;48.854;9.292;2022-08-19T13:07:37;44.30;;;25.80;;
74459;SDS011;62902;48.854;9.292;2022-08-19T13:10:05;42.95;;;25.70;;
74459;SDS011;62902;48.854;9.292;2022-08-19T13:12:33;43.17;;;26.42;;
74459;SDS011;62902;48.854;9.292;2022-08-19T13:14:59;40.40;;;25.58;;
74459;SDS011;62902;48.854;9.292;2022-08-19T13:17:27;41.38;;;26.00;;
74459;SDS011;62902;48.854;9.292;2022-08-19T13:19:54;41.28;;;26.27;;
74459;SDS011;62902;48.854;9.292;2022-08-19T13:22:21;38.30;;;25.50;;
74459;SDS011;62902;48.854;9.292;2022-08-19T13:24:47;37.90;;;23.92;;
74459;SDS011;62902;48.854;9.292;2022-08-19T13:27:14;40.08;;;25.27;;
74459;SDS011;62902;48.854;9.292;2022-08-19T13:29:41;40.78;;;26.20;;
74459;SDS011;62902;48.854;9.292;2022-08-19T13:32:26;37.40;;;24.58;;
74459;SDS011;62902;48.854;9.292;2022-08-19T13:35:14;36.53;;;23.65;;
74459;SDS011;62902;48.854;9.292;2022-08-19T13:37:42;35.72;;;22.55;;
74459;SDS011;62902;48.854;9.292;2022-08-19T13:40:11;41.33;;;25.40;;
74459;SDS011;62902;48.854;9.292;2022-08-19T13:42:41;45.30;;;26.95;;
74459;SDS011;62902;48.854;9.292;2022-08-19T13:45:08;46.42;;;27.75;;
74459;SDS011;62902;48.854;9.292;2022-08-19T13:47:36;47.55;;;28.70;;
74459;SDS011;62902;48.854;9.292;2022-08-19T13:50:09;44.20;;;26.80;;
74459;SDS011;62902;48.854;9.292;2022-08-19T13:52:38;40.33;;;25.83;;
74459;SDS011;62902;48.854;9.292;2022-08-19T13:55:05;43.45;;;27.63;;
74459;SDS011;62902;48.854;9.292;2022-08-19T13:57:32;47.08;;;28.77;;
74459;SDS011;62902;48.854;9.292;2022-08-19T14:02:26;45.58;;;26.58;;
74459;SDS011;62902;48.854;9.292;2022-08-19T14:04:53;45.97;;;27.88;;
74459;SDS011;62902;48.854;9.292;2022-08-19T14:07:20;46.75;;;28.23;;
74459;SDS011;62902;48.854;9.292;2022-08-19T14:09:50;49.33;;;28.55;;
74459;SDS011;62902;48.854;9.292;2022-08-19T14:12:20;54.92;;;31.90;;
74459;SDS011;62902;48.854;9.292;2022-08-19T14:14:54;48.30;;;28.08;;
74459;SDS011;62902;48.854;9.292;2022-08-19T14:17:21;47.63;;;28.30;;
74459;SDS011;62902;48.854;9.292;2022-08-19T14:19:47;52.42;;;28.30;;
74459;SDS011;62902;48.854;9.292;2022-08-19T14:22:14;54.03;;;29.88;;
74459;SDS011;62902;48.854;9.292;2022-08-19T14:24:47;48.55;;;29.27;;
74459;SDS011;62902;48.854;9.292;2022-08-19T14:27:14;51.78;;;29.48;;
74459;SDS011;62902;48.854;9.292;2022-08-19T14:29:41;49.90;;;29.92;;
74459;SDS011;62902;48.854;9.292;2022-08-19T14:32:07;51.58;;;29.80;;
74459;SDS011;62902;48.854;9.292;2022-08-19T14:34:42;53.17;;;30.23;;
74459;SDS011;62902;48.854;9.292;2022-08-19T14:37:08;56.17;;;32.35;;
74459;SDS011;62902;48.854;9.292;2022-08-19T14:39:40;53.05;;;29.80;;
74459;SDS011;62902;48.854;9.292;2022-08-19T14:42:13;48.47;;;29.00;;
74459;SDS011;62902;48.854;9.292;2022-08-19T14:44:41;51.63;;;29.98;;
74459;SDS011;62902;48.854;9.292;2022-08-19T14:47:08;47.45;;;28.40;;
74459;SDS011;62902;48.854;9.292;2022-08-19T14:49:36;48.42;;;28.40;;
74459;SDS011;62902;48.854;9.292;2022-08-19T14:52:10;49.30;;;28.50;;
74459;SDS011;62902;48.854;9.292;2022-08-19T14:54:36;50.78;;;28.63;;
74459;SDS011;62902;48.854;9.292;2022-08-19T14:57:03;48.85;;;29.08;;
74459;SDS011;62902;48.854;9.292;2022-08-19T14:59:30;53.95;;;28.98;;
74459;SDS011;62902;48.854;9.292;2022-08-19T15:01:56;48.83;;;28.58;;
74459;SDS011;62902;48.854;9.292;2022-08-19T15:06:59;51.03;;;27.92;;
74459;SDS011;62902;48.854;9.292;2022-08-19T15:09:25;51.35;;;29.38;;
74459;SDS011;62902;48.854;9.292;2022-08-19T15:11:52;47.28;;;28.88;;
74459;SDS011;62902;48.854;9.292;2022-08-19T15:14:19;43.45;;;28.02;;
74459;SDS011;62902;48.854;9.292;2022-08-19T15:16:47;43.20;;;27.67;;
74459;SDS011;62902;48.854;9.292;2022-08-19T15:19:14;46.80;;;28.90;;
74459;SDS011;62902;48.854;9.292;2022-08-19T15:21:41;42.70;;;26.90;;
74459;SDS011;62902;48.854;9.292;2022-08-19T15:24:07;41.22;;;27.17;;